createdAt,value
2023-02-14T00:01:11.540Z,41.05
2023-02-14T00:03:38.820Z,37.58
2023-02-14T00:06:11.587Z,34.60
2023-02-14T00:08:40.958Z,34.78
2023-02-14T00:11:09.058Z,33.40
2023-02-14T00:13:36.046Z,32.50
2023-02-14T00:16:03.681Z,32.53
2023-02-14T00:18:49.412Z,36.67
2023-02-14T00:21:16.403Z,29.67
2023-02-14T00:23:43.884Z,34.95
2023-02-14T00:26:15.413Z,31.75
2023-02-14T00:28:42.633Z,28.23
2023-02-14T00:31:09.805Z,27.52
2023-02-14T00:33:37.246Z,39.03
2023-02-14T00:36:07.849Z,30.88
2023-02-14T00:38:36.110Z,26.08
2023-02-14T00:41:05.540Z,31.95
2023-02-14T00:43:32.468Z,29.90
2023-02-14T00:45:59.473Z,29.17
2023-02-14T00:48:30.068Z,37.00
2023-02-14T00:50:57.199Z,34.90
2023-02-14T00:53:24.240Z,32.42
2023-02-14T00:55:51.170Z,35.47
2023-02-14T00:58:18.124Z,33.38
2023-02-14T01:00:45.122Z,34.25
2023-02-14T01:03:12.079Z,34.53
2023-02-14T01:05:39.004Z,32.97
2023-02-14T01:08:06.021Z,30.00
2023-02-14T01:10:33.035Z,33.80
2023-02-14T01:13:00.302Z,33.58
2023-02-14T01:15:27.208Z,30.73
2023-02-14T01:17:54.147Z,36.80
2023-02-14T01:20:21.293Z,37.92
2023-02-14T01:22:48.320Z,28.08
2023-02-14T01:25:15.314Z,35.47
2023-02-14T01:27:42.230Z,38.35
2023-02-14T01:30:10.072Z,38.45
2023-02-14T01:32:37.132Z,34.85
2023-02-14T01:35:06.138Z,32.15
2023-02-14T01:37:33.060Z,33.95
2023-02-14T01:40:00.372Z,30.42
2023-02-14T01:42:27.383Z,35.60
2023-02-14T01:44:58.111Z,24.98
2023-02-14T01:47:28.941Z,32.25
2023-02-14T01:50:08.123Z,28.85
2023-02-14T01:52:52.789Z,29.50
2023-02-14T01:55:23.798Z,31.73
2023-02-14T01:57:57.810Z,29.92
2023-02-14T02:00:45.008Z,33.35
2023-02-14T02:03:13.683Z,35.75
2023-02-14T02:05:47.214Z,30.88
2023-02-14T02:08:14.403Z,33.90
2023-02-14T02:10:41.318Z,26.67
2023-02-14T02:13:19.304Z,29.02
2023-02-14T02:16:10.955Z,32.78
2023-02-14T02:18:56.482Z,29.50
2023-02-14T02:21:23.322Z,28.95
2023-02-14T02:24:29.965Z,25.25
2023-02-14T02:27:26.172Z,28.25
2023-02-14T02:30:08.146Z,34.33
2023-02-14T02:32:44.003Z,28.63
2023-02-14T02:35:22.537Z,22.85
2023-02-14T02:38:07.501Z,31.88
2023-02-14T02:40:34.460Z,28.25
2023-02-14T02:43:38.923Z,34.17
2023-02-14T02:46:48.071Z,23.13
2023-02-14T02:50:03.702Z,25.88
2023-02-14T02:53:12.250Z,29.45
2023-02-14T02:56:12.751Z,25.23
2023-02-14T02:58:49.047Z,21.95
2023-02-14T03:01:21.047Z,32.70
2023-02-14T03:04:11.759Z,25.30
2023-02-14T03:06:38.665Z,23.67
2023-02-14T03:09:20.910Z,33.38
2023-02-14T03:12:13.979Z,31.50
2023-02-14T03:15:13.985Z,34.38
2023-02-14T03:18:04.368Z,24.92
2023-02-14T03:20:55.148Z,36.53
2023-02-14T03:23:33.731Z,23.50
2023-02-14T03:26:34.046Z,21.25
2023-02-14T03:29:39.303Z,27.90
2023-02-14T03:32:30.821Z,26.85
2023-02-14T03:35:16.284Z,28.17
2023-02-14T03:37:53.445Z,22.15
2023-02-14T03:40:44.965Z,34.10
2023-02-14T03:43:21.103Z,22.15
2023-02-14T03:45:55.962Z,20.52
2023-02-14T03:48:25.769Z,30.38
2023-02-14T03:50:53.927Z,24.38
2023-02-14T03:53:26.476Z,37.05
2023-02-14T03:55:56.275Z,32.65
2023-02-14T03:58:28.414Z,36.78
2023-02-14T04:01:00.981Z,36.83
2023-02-14T04:03:30.123Z,34.67
2023-02-14T04:05:57.284Z,27.85
2023-02-14T04:08:29.432Z,26.77
2023-02-14T04:10:58.635Z,28.45
2023-02-14T04:13:25.712Z,30.17
2023-02-14T04:15:52.745Z,20.70
2023-02-14T04:18:38.325Z,18.95
2023-02-14T04:21:05.955Z,23.52
2023-02-14T04:23:32.880Z,34.22
2023-02-14T04:25:59.972Z,34.17
2023-02-14T04:28:26.966Z,35.22
2023-02-14T04:30:53.917Z,34.42
2023-02-14T04:33:20.855Z,25.73
2023-02-14T04:35:49.317Z,24.15
2023-02-14T04:38:16.241Z,25.40
2023-02-14T04:40:43.202Z,24.58
2023-02-14T04:43:10.449Z,28.15
2023-02-14T04:45:37.338Z,35.25
2023-02-14T04:48:04.296Z,34.42
2023-02-14T04:50:31.187Z,35.30
2023-02-14T04:52:58.135Z,35.90
2023-02-14T04:55:25.077Z,32.40
2023-02-14T04:57:52.041Z,31.65
2023-02-14T05:00:19.498Z,31.77
2023-02-14T05:02:46.488Z,30.70
2023-02-14T05:05:13.401Z,34.22
2023-02-14T05:07:40.417Z,33.85
2023-02-14T05:10:07.994Z,34.70
2023-02-14T05:12:35.344Z,36.58
2023-02-14T05:15:02.239Z,31.63
2023-02-14T05:17:29.208Z,29.98
2023-02-14T05:19:56.388Z,34.50
2023-02-14T05:22:23.315Z,30.75
2023-02-14T05:24:50.241Z,31.38
2023-02-14T05:27:17.163Z,32.13
2023-02-14T05:29:45.297Z,29.33
2023-02-14T05:32:12.267Z,27.52
2023-02-14T05:34:39.200Z,33.28
2023-02-14T05:37:06.168Z,26.73
2023-02-14T05:39:33.138Z,23.95
2023-02-14T05:42:00.076Z,21.98
2023-02-14T05:44:27.029Z,25.55
2023-02-14T05:46:54.996Z,30.55
2023-02-14T05:49:22.024Z,28.55
2023-02-14T05:51:48.938Z,36.60
2023-02-14T05:54:15.927Z,29.77
2023-02-14T05:56:42.842Z,27.20
2023-02-14T05:59:09.773Z,29.75
2023-02-14T06:01:36.729Z,30.92
2023-02-14T06:04:03.694Z,32.63
2023-02-14T06:06:30.729Z,29.23
2023-02-14T06:08:57.641Z,30.23
2023-02-14T06:11:24.615Z,30.55
2023-02-14T06:13:51.524Z,26.48
2023-02-14T06:16:18.515Z,28.80
2023-02-14T06:18:45.476Z,28.92
2023-02-14T06:21:12.444Z,26.67
2023-02-14T06:23:39.419Z,29.42
2023-02-14T06:26:06.350Z,33.05
2023-02-14T06:28:33.301Z,33.50
2023-02-14T06:31:00.528Z,30.55
2023-02-14T06:33:27.863Z,34.40
2023-02-14T06:35:55.072Z,34.92
2023-02-14T06:38:22.006Z,31.27
2023-02-14T06:40:48.948Z,32.15
2023-02-14T06:43:15.878Z,31.10
2023-02-14T06:45:44.062Z,26.25
2023-02-14T06:48:12.600Z,28.60
2023-02-14T06:50:39.555Z,26.80
2023-02-14T06:53:06.712Z,27.40
2023-02-14T06:55:33.846Z,22.70
2023-02-14T06:58:00.781Z,25.15
2023-02-14T07:00:28.062Z,24.17
2023-02-14T07:02:55.101Z,27.65
2023-02-14T07:05:22.409Z,27.08
2023-02-14T07:07:49.738Z,26.02
2023-02-14T07:10:16.951Z,26.05
2023-02-14T07:12:43.990Z,23.20
2023-02-14T07:15:14.994Z,25.58
2023-02-14T07:17:41.957Z,21.35
2023-02-14T07:20:09.685Z,25.15
2023-02-14T07:22:37.778Z,25.42
2023-02-14T07:25:06.469Z,23.65
2023-02-14T07:27:35.907Z,21.42
2023-02-14T07:30:04.710Z,23.33
2023-02-14T07:32:31.884Z,32.05
2023-02-14T07:34:58.855Z,19.85
2023-02-14T07:37:26.118Z,21.98
2023-02-14T07:39:53.044Z,23.48
2023-02-14T07:42:20.080Z,26.15
2023-02-14T07:44:47.069Z,20.85
2023-02-14T07:47:14.029Z,22.20
2023-02-14T07:49:41.011Z,25.25
2023-02-14T07:52:08.703Z,26.48
2023-02-14T07:54:35.949Z,23.55
2023-02-14T07:57:02.903Z,25.05
2023-02-14T07:59:29.993Z,23.85
2023-02-14T08:01:57.373Z,23.33
2023-02-14T08:04:32.873Z,21.02
2023-02-14T08:07:01.398Z,25.83
2023-02-14T08:09:28.510Z,23.85
2023-02-14T08:12:18.808Z,30.73
2023-02-14T08:14:45.800Z,22.38
2023-02-14T08:17:15.790Z,21.63
2023-02-14T08:19:42.875Z,22.20
2023-02-14T08:22:10.155Z,26.25
2023-02-14T08:24:37.098Z,20.10
2023-02-14T08:27:04.717Z,19.95
2023-02-14T08:29:31.972Z,19.73
2023-02-14T08:32:00.851Z,22.35
2023-02-14T08:34:31.425Z,20.63
2023-02-14T08:37:00.096Z,21.65
2023-02-14T08:39:27.103Z,19.55
2023-02-14T08:41:54.095Z,16.42
2023-02-14T08:44:21.226Z,17.98
2023-02-14T08:46:48.216Z,20.60
2023-02-14T08:49:15.220Z,18.63
2023-02-14T08:51:42.178Z,18.98
2023-02-14T08:54:09.093Z,18.13
2023-02-14T08:56:36.845Z,18.77
2023-02-14T08:59:04.363Z,19.45
2023-02-14T09:01:31.429Z,20.00
2023-02-14T09:03:58.870Z,19.25
2023-02-14T09:06:26.614Z,23.73
2023-02-14T09:08:55.355Z,19.90
2023-02-14T09:11:24.647Z,23.17
2023-02-14T09:13:53.405Z,22.42
2023-02-14T09:16:22.430Z,20.50
2023-02-14T09:18:50.492Z,21.08
2023-02-14T09:21:20.264Z,18.75
2023-02-14T09:23:47.770Z,20.75
2023-02-14T09:26:16.457Z,20.13
2023-02-14T09:28:44.320Z,18.48
2023-02-14T09:31:21.812Z,19.23
2023-02-14T09:33:50.025Z,18.90
2023-02-14T09:36:36.154Z,18.77
2023-02-14T09:39:03.691Z,20.85
2023-02-14T09:41:30.619Z,20.98
2023-02-14T09:44:09.245Z,20.08
2023-02-14T09:46:44.194Z,22.17
2023-02-14T09:49:15.122Z,23.20
2023-02-14T09:51:51.717Z,22.98
2023-02-14T09:54:29.598Z,21.00
2023-02-14T09:57:19.580Z,24.10
2023-02-14T10:00:06.556Z,22.88
2023-02-14T10:02:58.619Z,22.10
2023-02-14T10:05:40.433Z,24.70
2023-02-14T10:08:31.115Z,26.27
2023-02-14T10:11:05.915Z,23.70
2023-02-14T10:13:40.926Z,24.45
2023-02-14T10:16:27.117Z,25.77
2023-02-14T10:19:11.883Z,19.42
2023-02-14T10:21:46.448Z,19.45
2023-02-14T10:24:29.496Z,21.58
2023-02-14T10:29:45.599Z,26.98
2023-02-14T10:32:20.642Z,26.60
2023-02-14T10:34:50.090Z,26.45
2023-02-14T10:37:35.918Z,30.95
2023-02-14T10:40:40.972Z,25.17
2023-02-14T10:43:45.032Z,22.08
2023-02-14T10:46:39.645Z,25.17
2023-02-14T10:49:32.498Z,27.02
2023-02-14T10:52:08.218Z,26.98
2023-02-14T10:54:50.584Z,25.95
2023-02-14T10:57:29.637Z,24.48
2023-02-14T11:00:07.282Z,23.48
2023-02-14T11:02:40.580Z,23.38
2023-02-14T11:05:14.670Z,24.00
2023-02-14T11:07:47.413Z,23.55
2023-02-14T11:10:14.784Z,19.95
2023-02-14T11:12:42.163Z,21.25
2023-02-14T11:15:23.589Z,24.75
2023-02-14T11:18:07.206Z,22.13
2023-02-14T11:20:34.191Z,24.15
2023-02-14T11:23:01.134Z,20.13
2023-02-14T11:25:31.392Z,18.92
2023-02-14T11:28:05.784Z,20.58
2023-02-14T11:30:43.855Z,21.63
2023-02-14T11:33:26.190Z,25.02
2023-02-14T11:35:53.748Z,24.13
2023-02-14T11:38:41.856Z,24.35
2023-02-14T11:41:11.972Z,22.13
2023-02-14T11:43:44.355Z,23.63
2023-02-14T11:46:36.152Z,23.48
2023-02-14T11:49:30.413Z,21.90
2023-02-14T11:51:59.947Z,21.73
2023-02-14T11:54:36.171Z,19.92
2023-02-14T11:57:10.949Z,19.35
2023-02-14T11:59:43.713Z,19.27
2023-02-14T12:02:46.265Z,19.10
2023-02-14T12:05:28.907Z,16.48
2023-02-14T12:08:02.327Z,14.10
2023-02-14T12:10:39.801Z,15.18
2023-02-14T12:13:11.472Z,13.98
2023-02-14T12:15:51.141Z,14.05
2023-02-14T12:18:56.020Z,14.20
2023-02-14T12:21:44.397Z,16.75
2023-02-14T12:24:34.229Z,14.52
2023-02-14T12:27:51.081Z,16.10
2023-02-14T12:30:21.893Z,20.63
2023-02-14T12:32:54.523Z,17.25
2023-02-14T12:35:52.313Z,15.40
2023-02-14T12:38:22.251Z,20.85
2023-02-14T12:41:01.177Z,20.88
2023-02-14T12:43:51.038Z,18.95
2023-02-14T12:46:50.058Z,19.17
2023-02-14T12:49:26.251Z,19.08
2023-02-14T12:52:31.074Z,17.85
2023-02-14T12:55:00.982Z,20.63
2023-02-14T12:57:30.699Z,17.23
2023-02-14T13:00:09.755Z,19.27
2023-02-14T13:02:43.213Z,15.60
2023-02-14T13:05:51.204Z,14.40
2023-02-14T13:08:42.974Z,14.45
2023-02-14T13:11:39.053Z,18.40
2023-02-14T13:14:32.149Z,21.67
2023-02-14T13:17:14.376Z,17.63
2023-02-14T13:19:41.251Z,15.50
2023-02-14T13:22:13.546Z,13.63
2023-02-14T13:24:43.814Z,12.88
2023-02-14T13:27:22.279Z,13.18
2023-02-14T13:29:59.370Z,15.40
2023-02-14T13:32:33.666Z,14.23
2023-02-14T13:35:01.543Z,12.43
2023-02-14T13:37:29.933Z,10.73
2023-02-14T13:39:59.534Z,13.07
2023-02-14T13:42:51.508Z,13.10
2023-02-14T13:45:39.560Z,11.93
2023-02-14T13:48:15.485Z,8.20
2023-02-14T13:50:59.967Z,7.57
2023-02-14T13:53:52.591Z,10.55
2023-02-14T13:56:19.486Z,7.10
2023-02-14T13:58:54.184Z,7.47
2023-02-14T14:01:42.849Z,8.18
2023-02-14T14:04:29.990Z,7.32
2023-02-14T14:07:03.242Z,6.60
2023-02-14T14:09:42.561Z,6.88
2023-02-14T14:12:31.262Z,7.07
2023-02-14T14:15:15.952Z,6.88
2023-02-14T14:17:44.510Z,6.30
2023-02-14T14:20:18.806Z,6.03
2023-02-14T14:22:53.446Z,5.68
2023-02-14T14:25:37.877Z,5.85
2023-02-14T14:28:22.026Z,5.63
2023-02-14T14:30:49.760Z,6.05
2023-02-14T14:33:32.244Z,6.72
2023-02-14T14:36:02.910Z,6.40
2023-02-14T14:38:31.529Z,5.95
2023-02-14T14:41:01.044Z,7.10
2023-02-14T14:43:32.685Z,6.47
2023-02-14T14:46:02.666Z,5.70
2023-02-14T14:48:33.823Z,8.52
2023-02-14T14:51:01.310Z,5.30
2023-02-14T14:53:36.698Z,7.82
2023-02-14T14:56:04.133Z,7.13
2023-02-14T14:58:37.996Z,7.88
2023-02-14T15:01:09.508Z,5.03
2023-02-14T15:03:36.588Z,6.32
2023-02-14T15:06:19.688Z,7.38
2023-02-14T15:08:48.708Z,6.35
2023-02-14T15:11:43.647Z,7.30
2023-02-14T15:14:17.452Z,7.15
2023-02-14T15:17:03.610Z,9.05
2023-02-14T15:19:44.546Z,5.90
2023-02-14T15:22:54.632Z,7.60
2023-02-14T15:25:35.097Z,8.60
2023-02-14T15:28:02.500Z,6.70
2023-02-14T15:30:37.820Z,7.78
2023-02-14T15:33:10.238Z,11.20
2023-02-14T15:35:42.390Z,8.13
2023-02-14T15:38:12.311Z,11.63
2023-02-14T15:40:40.550Z,10.43
2023-02-14T15:43:19.289Z,9.15
2023-02-14T15:45:48.545Z,8.35
2023-02-14T15:48:36.586Z,9.15
2023-02-14T15:51:06.435Z,7.35
2023-02-14T15:53:42.469Z,9.45
2023-02-14T15:56:12.554Z,8.55
2023-02-14T15:58:40.818Z,8.90
2023-02-14T16:01:09.311Z,7.88
2023-02-14T16:03:39.986Z,11.07
2023-02-14T16:06:07.246Z,10.70
2023-02-14T16:08:40.024Z,13.45
2023-02-14T16:11:14.755Z,11.68
2023-02-14T16:13:46.537Z,8.35
2023-02-14T16:16:15.630Z,10.90
2023-02-14T16:18:45.716Z,11.20
2023-02-14T16:21:17.294Z,10.45
2023-02-14T16:23:46.995Z,12.60
2023-02-14T16:26:15.011Z,11.45
2023-02-14T16:28:43.446Z,10.15
2023-02-14T16:31:15.845Z,10.18
2023-02-14T16:33:42.983Z,10.43
2023-02-14T16:36:18.776Z,10.60
2023-02-14T16:38:46.334Z,10.38
2023-02-14T16:41:41.662Z,11.98
2023-02-14T16:44:13.583Z,10.70
2023-02-14T16:46:42.974Z,8.95
2023-02-14T16:49:10.060Z,7.80
2023-02-14T16:51:37.505Z,8.27
2023-02-14T16:54:14.293Z,8.05
2023-02-14T16:56:58.130Z,12.60
2023-02-14T16:59:25.084Z,13.27
2023-02-14T17:01:52.094Z,10.98
2023-02-14T17:04:19.324Z,10.98
2023-02-14T17:06:57.584Z,10.45
2023-02-14T17:09:28.008Z,9.73
2023-02-14T17:12:01.471Z,11.60
2023-02-14T17:14:33.211Z,11.45
2023-02-14T17:17:00.448Z,11.00
2023-02-14T17:19:27.607Z,14.57
2023-02-14T17:21:58.167Z,16.15
2023-02-14T17:24:25.234Z,12.60
2023-02-14T17:26:52.230Z,16.17
2023-02-14T17:29:19.245Z,13.13
2023-02-14T17:31:47.389Z,12.13
2023-02-14T17:34:14.777Z,14.73
2023-02-14T17:36:41.801Z,12.95
2023-02-14T17:39:08.781Z,13.07
2023-02-14T17:41:35.778Z,14.68
2023-02-14T17:44:02.963Z,15.18
2023-02-14T17:46:31.788Z,13.90
2023-02-14T17:49:01.862Z,13.18
2023-02-14T17:51:29.548Z,13.27
2023-02-14T17:53:58.951Z,15.55
2023-02-14T17:56:31.729Z,13.13
2023-02-14T17:58:59.897Z,16.85
2023-02-14T18:01:31.394Z,15.27
2023-02-14T18:03:58.655Z,15.85
2023-02-14T18:06:31.459Z,13.23
2023-02-14T18:08:58.638Z,13.93
2023-02-14T18:11:27.628Z,11.50
2023-02-14T18:13:55.989Z,11.10
2023-02-14T18:16:24.917Z,14.15
2023-02-14T18:18:52.209Z,13.73
2023-02-14T18:21:21.813Z,12.50
2023-02-14T18:23:52.215Z,12.63
2023-02-14T18:26:19.399Z,13.90
2023-02-14T18:28:46.468Z,16.63
2023-02-14T18:31:16.520Z,14.43
2023-02-14T18:33:44.231Z,12.35
2023-02-14T18:36:14.458Z,12.13
2023-02-14T18:38:42.971Z,16.98
2023-02-14T18:41:12.478Z,18.85
2023-02-14T18:43:41.316Z,17.00
2023-02-14T18:46:13.509Z,19.38
2023-02-14T18:48:40.811Z,19.00
2023-02-14T18:51:13.760Z,15.75
2023-02-14T18:53:41.534Z,26.25
2023-02-14T18:56:14.652Z,19.73
2023-02-14T18:58:48.022Z,21.42
2023-02-14T19:01:16.934Z,22.55
2023-02-14T19:03:44.517Z,20.45
2023-02-14T19:06:12.692Z,17.65
2023-02-14T19:08:41.051Z,13.95
2023-02-14T19:11:17.329Z,15.63
2023-02-14T19:13:49.889Z,18.92
2023-02-14T19:16:21.633Z,17.33
2023-02-14T19:18:50.014Z,16.70
2023-02-14T19:21:20.225Z,15.20
2023-02-14T19:23:48.616Z,17.60
2023-02-14T19:26:32.880Z,16.77
2023-02-14T19:29:02.391Z,16.15
2023-02-14T19:31:29.802Z,17.45
2023-02-14T19:33:57.248Z,20.85
2023-02-14T19:36:24.553Z,20.60
2023-02-14T19:38:53.502Z,16.83
2023-02-14T19:41:31.433Z,20.83
2023-02-14T19:44:00.582Z,19.63
2023-02-14T19:46:28.770Z,15.02
2023-02-14T19:48:59.626Z,14.52
2023-02-14T19:51:32.498Z,19.38
2023-02-14T19:54:02.072Z,20.35
2023-02-14T19:56:31.738Z,20.55
2023-02-14T19:58:59.120Z,16.95
2023-02-14T20:01:29.022Z,20.48
2023-02-14T20:03:56.457Z,19.83
2023-02-14T20:06:25.053Z,20.23
2023-02-14T20:08:52.485Z,20.13
2023-02-14T20:11:39.784Z,22.77
2023-02-14T20:14:07.857Z,19.90
2023-02-14T20:16:36.710Z,23.00
2023-02-14T20:19:08.134Z,20.15
2023-02-14T20:21:35.465Z,26.73
2023-02-14T20:24:03.963Z,22.30
2023-02-14T20:26:33.377Z,24.45
2023-02-14T20:29:03.885Z,25.23
2023-02-14T20:31:32.469Z,21.30
2023-02-14T20:34:00.207Z,23.90
2023-02-14T20:36:27.531Z,23.85
2023-02-14T20:39:02.168Z,26.17
2023-02-14T20:41:29.449Z,22.98
2023-02-14T20:44:06.089Z,26.35
2023-02-14T20:46:33.992Z,25.45
2023-02-14T20:49:01.406Z,24.25
2023-02-14T20:51:28.736Z,30.58
2023-02-14T20:53:56.033Z,28.08
2023-02-14T20:56:23.872Z,31.38
2023-02-14T20:58:51.168Z,28.90
2023-02-14T21:01:24.129Z,28.38
2023-02-14T21:03:53.408Z,28.58
2023-02-14T21:06:28.428Z,29.30
2023-02-14T21:08:56.059Z,26.65
2023-02-14T21:11:24.321Z,22.02
2023-02-14T21:13:55.621Z,24.60
2023-02-14T21:16:22.846Z,24.48
2023-02-14T21:18:55.221Z,18.35
2023-02-14T21:21:43.618Z,19.30
2023-02-14T21:24:14.537Z,26.50
2023-02-14T21:26:42.466Z,22.52
2023-02-14T21:29:10.314Z,25.75
2023-02-14T21:31:37.808Z,23.33
2023-02-14T21:34:04.965Z,27.13
2023-02-14T21:36:36.890Z,25.00
2023-02-14T21:39:05.939Z,26.15
2023-02-14T21:41:33.332Z,29.15
2023-02-14T21:44:01.659Z,30.08
2023-02-14T21:46:33.069Z,25.55
2023-02-14T21:49:20.848Z,25.48
2023-02-14T21:51:52.766Z,23.58
2023-02-14T21:54:19.861Z,23.85
2023-02-14T21:56:46.905Z,23.27
2023-02-14T21:59:14.321Z,23.63
2023-02-14T22:01:42.300Z,27.10
2023-02-14T22:04:11.195Z,25.10
2023-02-14T22:06:39.981Z,29.33
2023-02-14T22:09:08.142Z,26.10
2023-02-14T22:11:35.490Z,26.48
2023-02-14T22:14:02.953Z,24.27
2023-02-14T22:16:31.287Z,21.35
2023-02-14T22:18:58.472Z,21.42
2023-02-14T22:21:26.896Z,21.80
2023-02-14T22:23:55.169Z,22.52
2023-02-14T22:26:25.629Z,21.88
2023-02-14T22:28:57.055Z,19.73
2023-02-14T22:31:26.105Z,24.30
2023-02-14T22:33:54.110Z,22.88
2023-02-14T22:36:21.619Z,27.70
2023-02-14T22:38:48.677Z,19.50
2023-02-14T22:41:18.915Z,21.35
2023-02-14T22:43:46.476Z,28.08
2023-02-14T22:46:15.356Z,23.08
2023-02-14T22:48:42.592Z,23.27
2023-02-14T22:51:22.246Z,21.70
2023-02-14T22:53:51.043Z,21.63
2023-02-14T22:56:29.669Z,14.45
2023-02-14T22:58:58.999Z,16.17
2023-02-14T23:01:26.748Z,17.98
2023-02-14T23:03:58.779Z,15.32
2023-02-14T23:06:28.018Z,17.40
2023-02-14T23:08:55.874Z,16.73
2023-02-14T23:11:28.704Z,15.13
2023-02-14T23:14:15.027Z,16.17
2023-02-14T23:17:00.845Z,21.75
2023-02-14T23:19:49.932Z,17.15
2023-02-14T23:22:31.536Z,14.90
2023-02-14T23:25:00.946Z,17.88
2023-02-14T23:27:40.302Z,21.77
2023-02-14T23:30:09.766Z,18.33
2023-02-14T23:32:36.733Z,14.18
2023-02-14T23:35:03.748Z,18.67
2023-02-14T23:37:30.674Z,17.63
2023-02-14T23:39:57.580Z,16.05
2023-02-14T23:42:24.550Z,17.48
2023-02-14T23:44:51.635Z,14.93
2023-02-14T23:47:18.680Z,14.93
2023-02-14T23:49:46.152Z,18.15
2023-02-14T23:52:13.892Z,18.05
2023-02-14T23:54:41.706Z,21.23
2023-02-14T23:57:09.199Z,16.10
2023-02-14T23:59:36.263Z,17.70
